sensor_id;sensor_type;location;lat;lon;timestamp;pressure;altitude;pressure_sealevel;temperature;humidity
44872;BME280;30602;51.060;17.226;2024-02-16T00:02:57;101894.18;;;7.13;100.00
44872;BME280;30602;51.060;17.226;2024-02-16T00:07:00;101890.70;;;7.14;100.00
44872;BME280;30602;51.060;17.226;2024-02-16T00:10:27;101893.44;;;7.14;100.00
44872;BME280;30602;51.060;17.226;2024-02-16T00:14:02;101892.53;;;7.11;100.00
44872;BME280;30602;51.060;17.226;2024-02-16T00:17:48;101885.77;;;7.07;100.00
44872;BME280;30602;51.060;17.226;2024-02-16T00:21:58;101890.21;;;7.05;100.00
44872;BME280;30602;51.060;17.226;2024-02-16T00:25:57;101887.06;;;7.04;100.00
44872;BME280;30602;51.060;17.226;2024-02-16T00:29:26;101882.94;;;7.01;100.00
44872;BME280;30602;51.060;17.226;2024-02-16T00:32:53;101880.48;;;6.95;100.00
44872;BME280;30602;51.060;17.226;2024-02-16T00:36:55;101871.59;;;6.89;100.00
44872;BME280;30602;51.060;17.226;2024-02-16T00:40:21;101872.05;;;6.87;100.00
44872;BME280;30602;51.060;17.226;2024-02-16T00:43:52;101877.80;;;6.82;100.00
44872;BME280;30602;51.060;17.226;2024-02-16T00:47:53;101876.85;;;6.79;100.00
44872;BME280;30602;51.060;17.226;2024-02-16T00:51:23;101870.03;;;6.80;100.00
44872;BME280;30602;51.060;17.226;2024-02-16T00:54:55;101860.38;;;6.74;100.00
44872;BME280;30602;51.060;17.226;2024-02-16T00:59:05;101872.70;;;6.79;100.00
44872;BME280;30602;51.060;17.226;2024-02-16T01:02:32;101874.99;;;6.81;100.00
44872;BME280;30602;51.060;17.226;2024-02-16T01:06:38;101872.68;;;6.74;100.00
44872;BME280;30602;51.060;17.226;2024-02-16T01:10:02;101878.40;;;6.60;100.00
44872;BME280;30602;51.060;17.226;2024-02-16T01:13:35;101878.03;;;6.52;100.00
44872;BME280;30602;51.060;17.226;2024-02-16T01:17:06;101879.94;;;6.39;100.00
44872;BME280;30602;51.060;17.226;2024-02-16T01:21:11;101872.23;;;6.26;100.00
44872;BME280;30602;51.060;17.226;2024-02-16T01:24:36;101870.05;;;6.11;100.00
44872;BME280;30602;51.060;17.226;2024-02-16T01:28:11;101877.58;;;5.92;100.00
44872;BME280;30602;51.060;17.226;2024-02-16T01:32:10;101881.27;;;5.72;100.00
44872;BME280;30602;51.060;17.226;2024-02-16T01:36:15;101877.07;;;5.60;100.00
44872;BME280;30602;51.060;17.226;2024-02-16T01:39:44;101875.01;;;5.62;100.00
44872;BME280;30602;51.060;17.226;2024-02-16T01:43:54;101869.37;;;5.62;100.00
44872;BME280;30602;51.060;17.226;2024-02-16T01:47:28;101874.09;;;5.59;100.00
44872;BME280;30602;51.060;17.226;2024-02-16T01:51:30;101886.95;;;5.43;100.00
44872;BME280;30602;51.060;17.226;2024-02-16T01:54:57;101880.90;;;5.40;100.00
44872;BME280;30602;51.060;17.226;2024-02-16T01:58:29;101871.64;;;5.33;100.00
44872;BME280;30602;51.060;17.226;2024-02-16T02:02:02;101868.87;;;5.31;100.00
44872;BME280;30602;51.060;17.226;2024-02-16T02:05:33;101863.95;;;5.18;100.00
44872;BME280;30602;51.060;17.226;2024-02-16T02:09:03;101861.81;;;5.01;100.00
44872;BME280;30602;51.060;17.226;2024-02-16T02:12:27;101863.59;;;4.79;100.00
44872;BME280;30602;51.060;17.226;2024-02-16T02:16:23;101856.91;;;4.84;100.00
44872;BME280;30602;51.060;17.226;2024-02-16T02:20:00;101850.30;;;5.09;100.00
44872;BME280;30602;51.060;17.226;2024-02-16T02:24:07;101836.05;;;5.31;100.00
44872;BME280;30602;51.060;17.226;2024-02-16T02:27:30;101832.40;;;5.47;100.00
44872;BME280;30602;51.060;17.226;2024-02-16T02:30:57;101824.41;;;5.51;100.00
44872;BME280;30602;51.060;17.226;2024-02-16T02:34:33;101820.47;;;5.48;100.00
44872;BME280;30602;51.060;17.226;2024-02-16T02:37:58;101822.12;;;5.41;100.00
44872;BME280;30602;51.060;17.226;2024-02-16T02:41:33;101816.91;;;5.22;100.00
44872;BME280;30602;51.060;17.226;2024-02-16T02:45:03;101825.62;;;5.07;100.00
44872;BME280;30602;51.060;17.226;2024-02-16T02:49:01;101819.51;;;5.01;100.00
44872;BME280;30602;51.060;17.226;2024-02-16T02:52:56;101818.14;;;4.99;100.00
44872;BME280;30602;51.060;17.226;2024-02-16T02:56:25;101812.40;;;4.93;100.00
44872;BME280;30602;51.060;17.226;2024-02-16T03:00:24;101818.24;;;4.76;100.00
44872;BME280;30602;51.060;17.226;2024-02-16T03:03:55;101820.91;;;4.65;100.00
44872;BME280;30602;51.060;17.226;2024-02-16T03:07:25;101824.00;;;4.54;100.00
44872;BME280;30602;51.060;17.226;2024-02-16T03:10:49;101827.33;;;4.54;100.00
44872;BME280;30602;51.060;17.226;2024-02-16T03:14:17;101827.84;;;4.59;100.00
44872;BME280;30602;51.060;17.226;2024-02-16T03:17:40;101814.40;;;4.51;100.00
44872;BME280;30602;51.060;17.226;2024-02-16T03:21:16;101818.49;;;4.34;100.00
44872;BME280;30602;51.060;17.226;2024-02-16T03:24:42;101830.12;;;4.23;100.00
44872;BME280;30602;51.060;17.226;2024-02-16T03:28:13;101817.88;;;3.98;100.00
44872;BME280;30602;51.060;17.226;2024-02-16T03:31:40;101840.66;;;4.03;100.00
44872;BME280;30602;51.060;17.226;2024-02-16T03:35:09;101843.16;;;3.99;100.00
44872;BME280;30602;51.060;17.226;2024-02-16T03:38:41;101846.03;;;3.94;100.00
44872;BME280;30602;51.060;17.226;2024-02-16T03:42:12;101844.25;;;3.91;100.00
44872;BME280;30602;51.060;17.226;2024-02-16T03:45:41;101847.48;;;3.88;100.00
44872;BME280;30602;51.060;17.226;2024-02-16T03:49:05;101842.98;;;3.83;100.00
44872;BME280;30602;51.060;17.226;2024-02-16T03:52:35;101840.40;;;3.75;100.00
44872;BME280;30602;51.060;17.226;2024-02-16T03:56:26;101841.88;;;3.70;100.00
44872;BME280;30602;51.060;17.226;2024-02-16T03:59:56;101846.04;;;3.64;100.00
44872;BME280;30602;51.060;17.226;2024-02-16T04:03:25;101843.89;;;3.60;100.00
44872;BME280;30602;51.060;17.226;2024-02-16T04:06:58;101843.47;;;3.62;100.00
44872;BME280;30602;51.060;17.226;2024-02-16T04:10:24;101841.33;;;3.64;100.00
44872;BME280;30602;51.060;17.226;2024-02-16T04:13:55;101839.60;;;3.64;100.00
44872;BME280;30602;51.060;17.226;2024-02-16T04:17:20;101841.39;;;3.69;100.00
44872;BME280;30602;51.060;17.226;2024-02-16T04:20:50;101846.76;;;3.65;100.00
44872;BME280;30602;51.060;17.226;2024-02-16T04:24:12;101844.52;;;3.60;100.00
44872;BME280;30602;51.060;17.226;2024-02-16T04:27:39;101846.53;;;3.56;100.00
44872;BME280;30602;51.060;17.226;2024-02-16T04:31:07;101842.98;;;3.53;100.00
44872;BME280;30602;51.060;17.226;2024-02-16T04:34:33;101837.20;;;3.43;100.00
44872;BME280;30602;51.060;17.226;2024-02-16T04:37:58;101836.20;;;3.38;100.00
44872;BME280;30602;51.060;17.226;2024-02-16T04:41:23;101837.83;;;3.42;100.00
44872;BME280;30602;51.060;17.226;2024-02-16T04:44:58;101827.48;;;3.35;100.00
44872;BME280;30602;51.060;17.226;2024-02-16T04:48:22;101841.41;;;3.38;100.00
44872;BME280;30602;51.060;17.226;2024-02-16T04:51:57;101843.02;;;3.35;100.00
44872;BME280;30602;51.060;17.226;2024-02-16T04:55:27;101840.83;;;3.33;100.00
44872;BME280;30602;51.060;17.226;2024-02-16T04:58:53;101833.08;;;3.37;100.00
44872;BME280;30602;51.060;17.226;2024-02-16T05:02:22;101828.08;;;3.32;100.00
44872;BME280;30602;51.060;17.226;2024-02-16T05:05:57;101829.67;;;3.19;100.00
44872;BME280;30602;51.060;17.226;2024-02-16T05:09:22;101840.66;;;3.18;100.00
44872;BME280;30602;51.060;17.226;2024-02-16T05:12:53;101831.12;;;3.11;100.00
44872;BME280;30602;51.060;17.226;2024-02-16T05:16:26;101831.27;;;3.14;100.00
44872;BME280;30602;51.060;17.226;2024-02-16T05:19:53;101812.03;;;3.02;100.00
44872;BME280;30602;51.060;17.226;2024-02-16T05:23:18;101829.04;;;3.13;100.00
44872;BME280;30602;51.060;17.226;2024-02-16T05:26:43;101834.35;;;3.10;100.00
44872;BME280;30602;51.060;17.226;2024-02-16T05:30:22;101829.52;;;3.14;100.00
44872;BME280;30602;51.060;17.226;2024-02-16T05:33:55;101823.98;;;3.14;100.00
44872;BME280;30602;51.060;17.226;2024-02-16T05:37:25;101823.24;;;3.15;100.00
44872;BME280;30602;51.060;17.226;2024-02-16T05:41:01;101821.33;;;3.07;100.00
44872;BME280;30602;51.060;17.226;2024-02-16T05:44:28;101820.71;;;2.97;100.00
44872;BME280;30602;51.060;17.226;2024-02-16T05:47:58;101824.66;;;2.94;100.00
44872;BME280;30602;51.060;17.226;2024-02-16T05:51:27;101820.50;;;2.96;100.00
44872;BME280;30602;51.060;17.226;2024-02-16T05:54:51;101823.17;;;2.97;100.00
44872;BME280;30602;51.060;17.226;2024-02-16T05:58:49;101818.95;;;2.95;100.00
44872;BME280;30602;51.060;17.226;2024-02-16T06:02:27;101797.10;;;2.80;100.00
44872;BME280;30602;51.060;17.226;2024-02-16T06:06:26;101827.75;;;2.96;100.00
44872;BME280;30602;51.060;17.226;2024-02-16T06:09:51;101831.29;;;3.01;100.00
44872;BME280;30602;51.060;17.226;2024-02-16T06:13:19;101834.61;;;3.11;100.00
44872;BME280;30602;51.060;17.226;2024-02-16T06:17:24;101839.84;;;3.15;100.00
44872;BME280;30602;51.060;17.226;2024-02-16T06:21:14;101827.33;;;3.08;100.00
44872;BME280;30602;51.060;17.226;2024-02-16T06:24:45;101834.39;;;3.17;100.00
44872;BME280;30602;51.060;17.226;2024-02-16T06:28:21;101833.06;;;3.22;100.00
44872;BME280;30602;51.060;17.226;2024-02-16T06:31:53;101832.44;;;3.29;100.00
44872;BME280;30602;51.060;17.226;2024-02-16T06:35:14;101836.91;;;3.39;100.00
44872;BME280;30602;51.060;17.226;2024-02-16T06:38:40;101835.45;;;3.45;100.00
44872;BME280;30602;51.060;17.226;2024-02-16T06:42:14;101830.67;;;3.58;100.00
44872;BME280;30602;51.060;17.226;2024-02-16T06:46:08;101825.98;;;3.78;100.00
44872;BME280;30602;51.060;17.226;2024-02-16T06:49:33;101822.80;;;3.87;100.00
44872;BME280;30602;51.060;17.226;2024-02-16T06:53:24;101834.57;;;4.07;100.00
44872;BME280;30602;51.060;17.226;2024-02-16T06:56:43;101835.28;;;4.24;100.00
44872;BME280;30602;51.060;17.226;2024-02-16T07:00:15;101826.82;;;4.32;100.00
44872;BME280;30602;51.060;17.226;2024-02-16T07:03:41;101841.82;;;4.50;100.00
44872;BME280;30602;51.060;17.226;2024-02-16T07:07:09;101844.74;;;4.63;100.00
44872;BME280;30602;51.060;17.226;2024-02-16T07:10:41;101843.57;;;4.69;100.00
44872;BME280;30602;51.060;17.226;2024-02-16T07:14:08;101850.62;;;4.81;100.00
44872;BME280;30602;51.060;17.226;2024-02-16T07:18:26;101848.74;;;4.88;100.00
44872;BME280;30602;51.060;17.226;2024-02-16T07:20:28;101850.78;;;4.95;100.00
44872;BME280;30602;51.060;17.226;2024-02-16T07:23:59;101857.79;;;5.00;100.00
44872;BME280;30602;51.060;17.226;2024-02-16T07:27:34;101857.96;;;5.08;100.00
44872;BME280;30602;51.060;17.226;2024-02-16T07:31:33;101859.43;;;5.20;100.00
44872;BME280;30602;51.060;17.226;2024-02-16T07:35:53;101860.74;;;5.35;100.00
44872;BME280;30602;51.060;17.226;2024-02-16T07:39:21;101831.63;;;5.46;100.00
44872;BME280;30602;51.060;17.226;2024-02-16T07:43:40;101850.83;;;5.78;100.00
44872;BME280;30602;51.060;17.226;2024-02-16T07:47:09;101844.34;;;5.85;100.00
44872;BME280;30602;51.060;17.226;2024-02-16T07:50:41;101843.02;;;5.86;100.00
44872;BME280;30602;51.060;17.226;2024-02-16T07:54:13;101838.71;;;5.92;100.00
44872;BME280;30602;51.060;17.226;2024-02-16T07:57:38;101837.42;;;5.93;100.00
44872;BME280;30602;51.060;17.226;2024-02-16T08:01:20;101839.15;;;5.99;100.00
44872;BME280;30602;51.060;17.226;2024-02-16T08:05:56;101832.63;;;6.05;100.00
44872;BME280;30602;51.060;17.226;2024-02-16T08:09:29;101838.81;;;6.15;100.00
44872;BME280;30602;51.060;17.226;2024-02-16T08:12:58;101836.87;;;6.19;100.00
44872;BME280;30602;51.060;17.226;2024-02-16T08:16:25;101837.91;;;6.29;100.00
44872;BME280;30602;51.060;17.226;2024-02-16T08:19:55;101834.83;;;6.40;100.00
44872;BME280;30602;51.060;17.226;2024-02-16T08:25:14;101834.56;;;6.52;100.00
44872;BME280;30602;51.060;17.226;2024-02-16T08:29:21;101835.98;;;6.87;100.00
44872;BME280;30602;51.060;17.226;2024-02-16T08:32:46;101830.34;;;7.09;100.00
44872;BME280;30602;51.060;17.226;2024-02-16T08:36:11;101820.88;;;7.17;100.00
44872;BME280;30602;51.060;17.226;2024-02-16T08:39:44;101820.79;;;7.22;100.00
44872;BME280;30602;51.060;17.226;2024-02-16T08:43:46;101817.63;;;7.30;100.00
44872;BME280;30602;51.060;17.226;2024-02-16T08:47:39;101811.72;;;7.47;100.00
44872;BME280;30602;51.060;17.226;2024-02-16T08:51:04;101802.07;;;7.59;100.00
44872;BME280;30602;51.060;17.226;2024-02-16T08:55:00;101801.80;;;7.79;100.00
44872;BME280;30602;51.060;17.226;2024-02-16T08:58:51;101798.88;;;8.03;100.00
44872;BME280;30602;51.060;17.226;2024-02-16T09:02:25;101798.11;;;8.22;100.00
44872;BME280;30602;51.060;17.226;2024-02-16T09:06:31;101790.38;;;8.49;100.00
44872;BME280;30602;51.060;17.226;2024-02-16T09:09:59;101786.52;;;8.71;100.00
44872;BME280;30602;51.060;17.226;2024-02-16T09:13:36;101779.92;;;8.95;100.00
44872;BME280;30602;51.060;17.226;2024-02-16T09:16:58;101784.23;;;9.25;100.00
44872;BME280;30602;51.060;17.226;2024-02-16T09:20:25;101777.91;;;9.41;100.00
44872;BME280;30602;51.060;17.226;2024-02-16T09:23:47;101777.37;;;9.47;100.00
44872;BME280;30602;51.060;17.226;2024-02-16T09:27:11;101779.41;;;9.48;99.53
44872;BME280;30602;51.060;17.226;2024-02-16T09:30:34;101777.10;;;9.63;99.96
44872;BME280;30602;51.060;17.226;2024-02-16T09:33:52;101774.38;;;9.76;100.00
44872;BME280;30602;51.060;17.226;2024-02-16T09:37:47;101780.38;;;9.84;100.00
44872;BME280;30602;51.060;17.226;2024-02-16T09:41:13;101777.71;;;9.87;100.00
44872;BME280;30602;51.060;17.226;2024-02-16T09:45:15;101781.20;;;10.03;100.00
44872;BME280;30602;51.060;17.226;2024-02-16T09:48:48;101780.12;;;10.09;99.98
44872;BME280;30602;51.060;17.226;2024-02-16T09:52:51;101778.00;;;10.11;98.86
44872;BME280;30602;51.060;17.226;2024-02-16T09:56:43;101780.07;;;10.19;98.73
44872;BME280;30602;51.060;17.226;2024-02-16T10:00:07;101778.88;;;10.28;98.07
44872;BME280;30602;51.060;17.226;2024-02-16T10:04:06;101782.71;;;10.31;96.71
44872;BME280;30602;51.060;17.226;2024-02-16T10:08:21;101782.74;;;10.26;95.79
44872;BME280;30602;51.060;17.226;2024-02-16T10:11:44;101784.50;;;10.19;96.15
44872;BME280;30602;51.060;17.226;2024-02-16T10:15:24;101782.70;;;10.09;96.07
44872;BME280;30602;51.060;17.226;2024-02-16T10:18:47;101779.20;;;10.04;96.03
44872;BME280;30602;51.060;17.226;2024-02-16T10:22:38;101771.02;;;10.06;95.79
44872;BME280;30602;51.060;17.226;2024-02-16T10:26:04;101769.22;;;10.10;95.41
44872;BME280;30602;51.060;17.226;2024-02-16T10:29:29;101770.94;;;10.25;94.41
44872;BME280;30602;51.060;17.226;2024-02-16T10:32:52;101772.97;;;10.36;92.85
44872;BME280;30602;51.060;17.226;2024-02-16T10:36:13;101771.98;;;10.47;92.26
44872;BME280;30602;51.060;17.226;2024-02-16T10:39:36;101766.26;;;10.70;92.55
44872;BME280;30602;51.060;17.226;2024-02-16T10:43:13;101763.14;;;10.86;92.26
44872;BME280;30602;51.060;17.226;2024-02-16T10:46:51;101760.96;;;10.94;90.88
44872;BME280;30602;51.060;17.226;2024-02-16T10:51:10;101761.32;;;11.04;89.94
44872;BME280;30602;51.060;17.226;2024-02-16T10:55:37;101749.07;;;11.30;87.96
44872;BME280;30602;51.060;17.226;2024-02-16T10:59:11;101738.17;;;11.32;87.63
44872;BME280;30602;51.060;17.226;2024-02-16T11:06:49;101729.91;;;11.53;86.97
44872;BME280;30602;51.060;17.226;2024-02-16T11:10:16;101723.89;;;11.58;86.64
44872;BME280;30602;51.060;17.226;2024-02-16T11:13:39;101712.72;;;11.80;86.22
44872;BME280;30602;51.060;17.226;2024-02-16T11:20:38;101709.74;;;11.94;85.20
44872;BME280;30602;51.060;17.226;2024-02-16T11:24:07;101708.98;;;11.97;83.19
44872;BME280;30602;51.060;17.226;2024-02-16T11:27:32;101703.60;;;12.10;83.85
44872;BME280;30602;51.060;17.226;2024-02-16T11:31:00;101703.55;;;12.20;83.80
44872;BME280;30602;51.060;17.226;2024-02-16T11:34:24;101696.20;;;12.35;84.07
44872;BME280;30602;51.060;17.226;2024-02-16T11:37:47;101690.16;;;12.42;82.53
44872;BME280;30602;51.060;17.226;2024-02-16T11:41:07;101681.68;;;12.50;81.87
44872;BME280;30602;51.060;17.226;2024-02-16T11:44:26;101677.97;;;12.71;82.37
44872;BME280;30602;51.060;17.226;2024-02-16T11:48:25;101677.15;;;12.80;79.42
44872;BME280;30602;51.060;17.226;2024-02-16T11:52:22;101670.55;;;13.13;80.59
44872;BME280;30602;51.060;17.226;2024-02-16T11:56:23;101668.74;;;13.25;77.81
44872;BME280;30602;51.060;17.226;2024-02-16T11:59:48;101659.31;;;13.26;77.17
44872;BME280;30602;51.060;17.226;2024-02-16T12:03:11;101663.46;;;13.36;77.07
44872;BME280;30602;51.060;17.226;2024-02-16T12:07:54;101664.52;;;13.54;77.18
44872;BME280;30602;51.060;17.226;2024-02-16T12:11:14;101657.89;;;13.76;75.83
44872;BME280;30602;51.060;17.226;2024-02-16T12:15:10;101656.30;;;13.88;76.21
44872;BME280;30602;51.060;17.226;2024-02-16T12:18:51;101654.98;;;13.98;75.16
44872;BME280;30602;51.060;17.226;2024-02-16T12:22:30;101654.99;;;14.08;75.19
44872;BME280;30602;51.060;17.226;2024-02-16T12:25:53;101660.59;;;14.19;75.76
44872;BME280;30602;51.060;17.226;2024-02-16T12:29:48;101656.32;;;14.18;74.03
44872;BME280;30602;51.060;17.226;2024-02-16T12:33:39;101654.46;;;14.11;73.93
44872;BME280;30602;51.060;17.226;2024-02-16T12:37:06;101649.88;;;14.00;74.28
44872;BME280;30602;51.060;17.226;2024-02-16T12:40:29;101642.40;;;14.07;74.45
44872;BME280;30602;51.060;17.226;2024-02-16T12:44:30;101645.78;;;14.15;73.38
44872;BME280;30602;51.060;17.226;2024-02-16T12:48:25;101637.36;;;13.95;72.05
44872;BME280;30602;51.060;17.226;2024-02-16T12:51:50;101636.42;;;13.95;72.31
44872;BME280;30602;51.060;17.226;2024-02-16T12:55:16;101632.00;;;14.05;73.31
44872;BME280;30602;51.060;17.226;2024-02-16T12:58:38;101633.91;;;14.10;72.96
44872;BME280;30602;51.060;17.226;2024-02-16T13:01:59;101632.63;;;14.25;73.66
44872;BME280;30602;51.060;17.226;2024-02-16T13:05:30;101628.03;;;14.38;73.30
44872;BME280;30602;51.060;17.226;2024-02-16T13:09:00;101630.18;;;14.44;72.76
44872;BME280;30602;51.060;17.226;2024-02-16T13:12:24;101625.99;;;14.48;72.64
44872;BME280;30602;51.060;17.226;2024-02-16T13:15:43;101620.88;;;14.58;72.98
44872;BME280;30602;51.060;17.226;2024-02-16T13:19:07;101618.54;;;14.45;69.48
44872;BME280;30602;51.060;17.226;2024-02-16T13:22:40;101622.77;;;14.47;69.16
44872;BME280;30602;51.060;17.226;2024-02-16T13:26:15;101628.70;;;14.66;69.46
44872;BME280;30602;51.060;17.226;2024-02-16T13:29:41;101627.81;;;14.81;67.95
44872;BME280;30602;51.060;17.226;2024-02-16T13:33:05;101627.16;;;14.83;67.20
44872;BME280;30602;51.060;17.226;2024-02-16T13:36:29;101607.98;;;14.76;67.45
44872;BME280;30602;51.060;17.226;2024-02-16T13:39:52;101619.34;;;14.86;66.25
44872;BME280;30602;51.060;17.226;2024-02-16T13:43:37;101602.65;;;14.73;65.99
44872;BME280;30602;51.060;17.226;2024-02-16T13:47:07;101617.24;;;14.70;64.17
44872;BME280;30602;51.060;17.226;2024-02-16T13:50:30;101611.86;;;14.74;63.74
44872;BME280;30602;51.060;17.226;2024-02-16T13:53:55;101611.46;;;14.75;63.20
44872;BME280;30602;51.060;17.226;2024-02-16T13:57:22;101607.23;;;14.75;62.95
44872;BME280;30602;51.060;17.226;2024-02-16T14:00:44;101612.43;;;14.79;62.78
44872;BME280;30602;51.060;17.226;2024-02-16T14:04:14;101600.33;;;14.74;62.26
44872;BME280;30602;51.060;17.226;2024-02-16T14:08:15;101591.84;;;14.58;61.05
44872;BME280;30602;51.060;17.226;2024-02-16T14:11:54;101616.12;;;14.51;60.82
44872;BME280;30602;51.060;17.226;2024-02-16T14:15:35;101619.93;;;14.33;61.72
44872;BME280;30602;51.060;17.226;2024-02-16T14:19:07;101622.84;;;14.16;62.41
44872;BME280;30602;51.060;17.226;2024-02-16T14:22:47;101620.94;;;14.00;63.94
44872;BME280;30602;51.060;17.226;2024-02-16T14:26:10;101620.77;;;13.82;64.60
44872;BME280;30602;51.060;17.226;2024-02-16T14:30:50;101615.06;;;13.67;65.16
44872;BME280;30602;51.060;17.226;2024-02-16T14:34:42;101610.88;;;13.58;65.48
44872;BME280;30602;51.060;17.226;2024-02-16T14:38:13;101613.65;;;13.50;66.43
44872;BME280;30602;51.060;17.226;2024-02-16T14:41:58;101617.51;;;13.33;67.18
44872;BME280;30602;51.060;17.226;2024-02-16T14:45:38;101614.91;;;13.20;68.24
44872;BME280;30602;51.060;17.226;2024-02-16T14:49:08;101610.39;;;13.08;69.46
44872;BME280;30602;51.060;17.226;2024-02-16T14:52:28;101606.78;;;12.94;70.19
44872;BME280;30602;51.060;17.226;2024-02-16T14:57:50;101609.41;;;12.80;71.19
44872;BME280;30602;51.060;17.226;2024-02-16T15:01:20;101610.92;;;12.73;71.55
44872;BME280;30602;51.060;17.226;2024-02-16T15:04:45;101611.78;;;12.68;71.41
44872;BME280;30602;51.060;17.226;2024-02-16T15:08:39;101607.01;;;12.65;71.26
44872;BME280;30602;51.060;17.226;2024-02-16T15:12:05;101612.09;;;12.67;71.29
44872;BME280;30602;51.060;17.226;2024-02-16T15:15:32;101619.52;;;12.65;70.65
44872;BME280;30602;51.060;17.226;2024-02-16T15:18:55;101619.80;;;12.63;71.27
44872;BME280;30602;51.060;17.226;2024-02-16T15:22:19;101609.70;;;12.54;71.42
44872;BME280;30602;51.060;17.226;2024-02-16T15:25:46;101609.97;;;12.48;71.96
44872;BME280;30602;51.060;17.226;2024-02-16T15:29:11;101607.80;;;12.46;72.05
44872;BME280;30602;51.060;17.226;2024-02-16T15:32:36;101561.13;;;12.11;72.55
44872;BME280;30602;51.060;17.226;2024-02-16T15:36:01;101612.89;;;12.35;72.94
44872;BME280;30602;51.060;17.226;2024-02-16T15:39:26;101616.95;;;12.30;73.11
44872;BME280;30602;51.060;17.226;2024-02-16T15:43:00;101621.51;;;12.30;73.12
44872;BME280;30602;51.060;17.226;2024-02-16T15:46:28;101619.49;;;12.30;72.95
44872;BME280;30602;51.060;17.226;2024-02-16T15:49:53;101621.41;;;12.35;73.01
44872;BME280;30602;51.060;17.226;2024-02-16T15:53:46;101618.28;;;12.32;73.24
44872;BME280;30602;51.060;17.226;2024-02-16T15:57:42;101621.95;;;12.24;73.62
44872;BME280;30602;51.060;17.226;2024-02-16T16:01:07;101628.48;;;12.22;74.02
44872;BME280;30602;51.060;17.226;2024-02-16T16:05:06;101623.26;;;12.13;74.69
44872;BME280;30602;51.060;17.226;2024-02-16T16:08:46;101624.56;;;12.11;74.98
44872;BME280;30602;51.060;17.226;2024-02-16T16:12:09;101629.20;;;12.09;75.07
44872;BME280;30602;51.060;17.226;2024-02-16T16:15:31;101632.96;;;12.11;74.97
44872;BME280;30602;51.060;17.226;2024-02-16T16:18:56;101634.84;;;12.12;75.47
44872;BME280;30602;51.060;17.226;2024-02-16T16:22:18;101634.36;;;12.08;76.14
44872;BME280;30602;51.060;17.226;2024-02-16T16:25:43;101641.45;;;11.99;77.03
44872;BME280;30602;51.060;17.226;2024-02-16T16:29:10;101639.24;;;12.08;77.08
44872;BME280;30602;51.060;17.226;2024-02-16T16:32:33;101644.92;;;11.92;77.28
44872;BME280;30602;51.060;17.226;2024-02-16T16:36:26;101610.63;;;11.65;77.74
44872;BME280;30602;51.060;17.226;2024-02-16T16:39:48;101635.60;;;11.76;78.21
44872;BME280;30602;51.060;17.226;2024-02-16T16:43:13;101639.18;;;11.69;79.00
44872;BME280;30602;51.060;17.226;2024-02-16T16:46:39;101645.04;;;11.60;78.91
44872;BME280;30602;51.060;17.226;2024-02-16T16:50:38;101644.59;;;11.63;79.18
44872;BME280;30602;51.060;17.226;2024-02-16T16:54:08;101650.20;;;11.64;79.25
44872;BME280;30602;51.060;17.226;2024-02-16T16:57:34;101649.89;;;11.65;79.32
44872;BME280;30602;51.060;17.226;2024-02-16T17:01:32;101650.31;;;11.69;79.68
44872;BME280;30602;51.060;17.226;2024-02-16T17:05:01;101656.71;;;11.74;79.84
44872;BME280;30602;51.060;17.226;2024-02-16T17:08:24;101657.88;;;11.78;79.45
44872;BME280;30602;51.060;17.226;2024-02-16T17:12:22;101658.08;;;11.73;79.56
44872;BME280;30602;51.060;17.226;2024-02-16T17:15:44;101655.19;;;11.68;79.89
44872;BME280;30602;51.060;17.226;2024-02-16T17:19:07;101656.02;;;11.63;80.04
44872;BME280;30602;51.060;17.226;2024-02-16T17:22:48;101644.34;;;11.53;80.29
44872;BME280;30602;51.060;17.226;2024-02-16T17:26:13;101654.22;;;11.62;80.13
44872;BME280;30602;51.060;17.226;2024-02-16T17:30:11;101655.09;;;11.61;80.31
44872;BME280;30602;51.060;17.226;2024-02-16T17:34:04;101660.52;;;11.60;80.35
44872;BME280;30602;51.060;17.226;2024-02-16T17:37:29;101663.73;;;11.58;80.64
44872;BME280;30602;51.060;17.226;2024-02-16T17:41:30;101668.51;;;11.57;81.04
44872;BME280;30602;51.060;17.226;2024-02-16T17:44:57;101670.01;;;11.57;81.12
44872;BME280;30602;51.060;17.226;2024-02-16T17:48:20;101671.49;;;11.59;80.97
44872;BME280;30602;51.060;17.226;2024-02-16T17:51:55;101644.35;;;11.35;81.20
44872;BME280;30602;51.060;17.226;2024-02-16T17:55:16;101678.88;;;11.45;81.57
44872;BME280;30602;51.060;17.226;2024-02-16T17:58:44;101682.96;;;11.41;81.67
44872;BME280;30602;51.060;17.226;2024-02-16T18:02:41;101681.18;;;11.37;81.94
44872;BME280;30602;51.060;17.226;2024-02-16T18:06:06;101681.49;;;11.36;81.97
44872;BME280;30602;51.060;17.226;2024-02-16T18:09:28;101684.54;;;11.33;82.11
44872;BME280;30602;51.060;17.226;2024-02-16T18:12:51;101678.26;;;11.30;82.42
44872;BME280;30602;51.060;17.226;2024-02-16T18:16:42;101674.44;;;11.26;82.73
44872;BME280;30602;51.060;17.226;2024-02-16T18:20:10;101674.45;;;11.26;82.81
44872;BME280;30602;51.060;17.226;2024-02-16T18:23:37;101677.94;;;11.28;82.80
44872;BME280;30602;51.060;17.226;2024-02-16T18:27:09;101681.27;;;11.30;82.53
44872;BME280;30602;51.060;17.226;2024-02-16T18:30:37;101674.94;;;11.29;82.61
44872;BME280;30602;51.060;17.226;2024-02-16T18:34:25;101673.27;;;11.27;82.58
44872;BME280;30602;51.060;17.226;2024-02-16T18:38:19;101674.88;;;11.27;82.67
44872;BME280;30602;51.060;17.226;2024-02-16T18:42:14;101686.05;;;11.27;82.78
44872;BME280;30602;51.060;17.226;2024-02-16T18:46:10;101674.26;;;11.15;82.95